Skip to Main Content
SEARCH:
Location Air RH Dwp Precip Type Wind Speed Wind Gust Direction Pavement Temperature Date/Time
Hatem Bridge US 40 E/B 42 45 22 None 8 mph 8 mph W 35 - 35 11/19/2017 8:50:00 PM
I-270 at I-370 41 59 28 None Calm 5 mph W 43 - 45 11/19/2017 8:50:00 PM
I-270 at MD-109 42 58 28 None 9 mph 17 mph W 43 - 45 11/19/2017 8:50:00 PM
I-495 at American Legion Bridge 43 56 28 None 5 mph 13 mph W 46 - 47 11/19/2017 8:50:00 PM
I-68 at MD-219 26 100 26 None 19 mph 31 mph W 27 - 30 11/19/2017 8:50:00 PM
I-68 at Savage Mt 27 100 27 Snow 6 mph 19 mph SW 30 - 30 11/19/2017 8:50:00 PM
I-68 at Sideling Hill 35 84 31 None Calm 4 mph SE 41 - 41 11/19/2017 8:50:00 PM
I-68 at WV Line 31 80 26 None 10 mph 22 mph W 32 - 34 11/19/2017 8:50:00 PM
I-695 at I-83 39 57 25 None Calm 7 mph W 41 - 42 11/19/2017 8:50:00 PM
I-70 at Fred-Wash Co. 36 78 30 None Calm 12 mph W 39 - 42 11/19/2017 8:50:00 PM
I-70 at I-695 39 59 26 None 6 mph 11 mph W 39 - 44 11/19/2017 8:50:00 PM
I-70 at I-81 40 64 29 None 7 mph 15 mph NW - 11/19/2017 8:50:00 PM
I-70 at MD-27 39 67 29 None Calm 11 mph W 40 - 41 11/19/2017 8:50:00 PM
I-70 at MD-32 39 62 27 None 5 mph 12 mph W 41 - 41 11/19/2017 8:50:00 PM
I-83 at MD-137 39 60 27 None 5 mph 9 mph SW 42 - 42 11/19/2017 8:50:00 PM
I-95 at I-695 NE 41 52 25 None Calm 4 mph W 42 - 44 11/19/2017 8:50:00 PM
I-95 at Patuxent River 42 57 28 None Calm 5 mph N 45 - 45 11/19/2017 8:50:00 PM
I-95 at Tydings Bridge 41 54 26 None 7 mph 13 mph W - 11/19/2017 8:50:00 PM
I-95/495 at I-295 46 51 29 None 8 mph 16 mph W 47 - 49 11/19/2017 8:50:00 PM
I-97 at MD-100 41 54 26 None 5 mph 8 mph SW 42 - 43 11/19/2017 8:50:00 PM
I-97 at MD-32 41 55 27 None 8 mph 13 mph N 43 - 43 11/19/2017 8:50:00 PM
MD 20 at MD 21 43 51 26 None 6 mph 12 mph W 44 - 44 11/19/2017 8:50:00 PM
MD 231 at Patuxent River 43 53 27 None 4 mph 8 mph W 47 - 47 11/19/2017 8:50:00 PM
MD 260 at Cox Rd 42 54 27 None Calm 6 mph W 47 - 47 11/19/2017 8:50:00 PM
MD-135 at Salt Dome 28 93 26 None 6 mph 21 mph SW 29 - 29 11/19/2017 8:50:00 PM
MD-140 at MD-97 38 64 27 None 7 mph 12 mph W 40 - 40 11/19/2017 8:50:00 PM
MD-200 EB at Bonifant Rd 40 62 29 None Calm Calm N 42 - 42 11/19/2017 8:50:00 PM
MD-200 WB at Muncaster Mill Rd 41 58 28 None Calm 6 mph W 44 - 45 11/19/2017 8:50:00 PM
MD-213 at Sassafras River 44 54 29 None 9 mph 15 mph W 41 - 41 11/19/2017 8:50:00 PM
MD-24 at Rock St Park 38 73 30 None Calm Calm W 39 - 39 11/19/2017 8:50:00 PM
MD-30 at PA Line 37 70 28 None 9 mph 14 mph W 38 - 38 11/19/2017 8:50:00 PM
MD-301 at MD-305 42 54 27 None 7 mph 11 mph W 43 - 44 11/19/2017 8:50:00 PM
MD-33 at Knapps Narrows Drawbridge 45 57 31 None 14 mph 25 mph NW 48 - 48 11/19/2017 8:50:00 PM
MD-344 at MD-224 45 47 26 None 4 mph 9 mph NW 46 - 46 11/19/2017 8:50:00 PM
MD-4 at Patuxent River 45 53 29 None - - No Data Available 46 - 49 11/19/2017 8:50:00 PM
MD-404 at Choptank River 43 52 26 None 6 mph 14 mph W 44 - 46 11/19/2017 8:50:00 PM
MD-43 at MD-150 41 55 26 None Calm 5 mph W 42 - 44 11/19/2017 8:50:00 PM
MD-51 at Oldtown Salt Dome 35 85 31 Sleet 6 mph 13 mph W 39 - 39 11/19/2017 8:50:00 PM
MD-64 at MD-418 38 67 28 None 7 mph 12 mph NW 42 - 42 11/19/2017 8:50:00 PM
US 50 East past MD-347 - - - No Data Available - - No Data Available 45 - 45 11/19/2017 8:50:00 PM
US-1 at Baltimore / Harford Co. Line 39 60 26 None Calm Calm SE 41 - 41 11/19/2017 8:50:00 PM
US-1 at Conowingo Dam 42 58 28 None 5 mph 12 mph W 44 - 44 11/19/2017 8:50:00 PM
US-13 at US-113 44 49 26 None 6 mph 14 mph NW 47 - 47 11/19/2017 8:50:00 PM
US-13 at US-50 - - - No Data Available - - No Data Available -
US-15 at MD-140 39 62 28 None Calm 4 mph N 41 - 43 11/19/2017 8:50:00 PM
US-301 at MD-5 42 57 28 None Calm 7 mph W 47 - 48 11/19/2017 8:50:00 PM
US-301 at Potomac 48 53 31 None 12 mph 15 mph W 46 - 49 11/19/2017 8:50:00 PM
US-301 on HWN Bridge 46 45 26 None - - No Data Available 42 - 42 11/19/2017 8:50:00 PM
US-340 at MD-180 40 58 27 None 11 mph 20 mph NW 41 - 43 11/19/2017 8:50:00 PM
US-50 at Choptank 46 56 31 None 13 mph 22 mph NW 46 - 47 11/19/2017 8:50:00 PM
US-50 at I-95 44 53 28 None 7 mph 14 mph NW 44 - 46 11/19/2017 8:50:00 PM
US-50 at MD-2 43 54 27 None Calm 7 mph N 44 - 45 11/19/2017 8:50:00 PM
US-50 at MD-331 44 51 27 None 6 mph 10 mph NW 46 - 51 11/19/2017 8:50:00 PM
US-50 at OC Drawbridge 44 48 26 None 9 mph 15 mph NW 44 - 44 11/19/2017 8:50:00 PM
US-50 at Table Rock Rd 27 100 27 None 10 mph 17 mph NW 30 - 30 11/19/2017 8:50:00 PM
US-50 Kent Narrow Bridge 43 56 29 None 5 mph 8 mph W 45 - 46 11/19/2017 8:50:00 PM
WPL Pier 31 43 49 25 None 10 mph 14 mph SW 38 - 38 11/19/2017 8:50:00 PM
Location Air RH Dwp Precip Type Wind Speed Wind Gust Direction Pavement Temperature Date/Time